sensor_id;sensor_type;location;lat;lon;timestamp;P1;durP1;ratioP1;P2;durP2;ratioP2
57828;SDS011;43657;52.698;6.314;2023-04-25T00:00:30;28.67;;;11.32;;
57828;SDS011;43657;52.698;6.314;2023-04-25T00:02:55;26.63;;;10.88;;
57828;SDS011;43657;52.698;6.314;2023-04-25T00:05:21;24.98;;;9.98;;
57828;SDS011;43657;52.698;6.314;2023-04-25T00:07:51;24.48;;;10.02;;
57828;SDS011;43657;52.698;6.314;2023-04-25T00:10:16;28.95;;;10.63;;
57828;SDS011;43657;52.698;6.314;2023-04-25T00:12:42;26.75;;;11.55;;
57828;SDS011;43657;52.698;6.314;2023-04-25T00:15:08;29.83;;;11.75;;
57828;SDS011;43657;52.698;6.314;2023-04-25T00:17:34;25.15;;;10.55;;
57828;SDS011;43657;52.698;6.314;2023-04-25T00:20:00;58.88;;;14.48;;
57828;SDS011;43657;52.698;6.314;2023-04-25T00:22:29;30.88;;;12.30;;
57828;SDS011;43657;52.698;6.314;2023-04-25T00:24:55;33.58;;;13.35;;
57828;SDS011;43657;52.698;6.314;2023-04-25T00:27:24;29.70;;;12.10;;
57828;SDS011;43657;52.698;6.314;2023-04-25T00:29:51;34.80;;;12.75;;
57828;SDS011;43657;52.698;6.314;2023-04-25T00:32:16;33.15;;;11.75;;
57828;SDS011;43657;52.698;6.314;2023-04-25T00:34:42;35.83;;;13.02;;
57828;SDS011;43657;52.698;6.314;2023-04-25T00:37:07;31.92;;;12.02;;
57828;SDS011;43657;52.698;6.314;2023-04-25T00:39:33;31.50;;;12.45;;
57828;SDS011;43657;52.698;6.314;2023-04-25T00:41:58;33.53;;;14.35;;
57828;SDS011;43657;52.698;6.314;2023-04-25T00:44:25;34.53;;;14.40;;
57828;SDS011;43657;52.698;6.314;2023-04-25T00:46:52;37.17;;;15.85;;
57828;SDS011;43657;52.698;6.314;2023-04-25T00:49:19;43.40;;;15.80;;
57828;SDS011;43657;52.698;6.314;2023-04-25T00:51:44;34.22;;;13.60;;
57828;SDS011;43657;52.698;6.314;2023-04-25T00:54:13;32.28;;;15.13;;
57828;SDS011;43657;52.698;6.314;2023-04-25T00:56:40;35.28;;;14.75;;
57828;SDS011;43657;52.698;6.314;2023-04-25T00:59:06;37.20;;;16.45;;
57828;SDS011;43657;52.698;6.314;2023-04-25T01:01:32;37.80;;;15.20;;
57828;SDS011;43657;52.698;6.314;2023-04-25T01:03:58;44.17;;;17.48;;
57828;SDS011;43657;52.698;6.314;2023-04-25T01:06:24;33.63;;;15.02;;
57828;SDS011;43657;52.698;6.314;2023-04-25T01:08:49;35.65;;;16.25;;
57828;SDS011;43657;52.698;6.314;2023-04-25T01:11:16;31.52;;;14.02;;
57828;SDS011;43657;52.698;6.314;2023-04-25T01:13:42;32.13;;;12.68;;
57828;SDS011;43657;52.698;6.314;2023-04-25T01:16:08;30.90;;;12.40;;
57828;SDS011;43657;52.698;6.314;2023-04-25T01:18:34;27.10;;;12.23;;
57828;SDS011;43657;52.698;6.314;2023-04-25T01:21:06;29.52;;;13.18;;
57828;SDS011;43657;52.698;6.314;2023-04-25T01:23:35;29.20;;;12.77;;
57828;SDS011;43657;52.698;6.314;2023-04-25T01:26:03;35.20;;;14.00;;
57828;SDS011;43657;52.698;6.314;2023-04-25T01:28:29;38.17;;;15.57;;
57828;SDS011;43657;52.698;6.314;2023-04-25T01:30:56;24.25;;;12.80;;
57828;SDS011;43657;52.698;6.314;2023-04-25T01:33:21;30.35;;;12.73;;
57828;SDS011;43657;52.698;6.314;2023-04-25T01:35:47;28.45;;;13.48;;
57828;SDS011;43657;52.698;6.314;2023-04-25T01:38:14;26.13;;;13.18;;
57828;SDS011;43657;52.698;6.314;2023-04-25T01:40:40;25.00;;;11.00;;
57828;SDS011;43657;52.698;6.314;2023-04-25T01:43:06;30.17;;;13.52;;
57828;SDS011;43657;52.698;6.314;2023-04-25T01:45:35;39.00;;;15.48;;
57828;SDS011;43657;52.698;6.314;2023-04-25T01:48:04;37.13;;;15.07;;
57828;SDS011;43657;52.698;6.314;2023-04-25T01:50:30;32.88;;;14.73;;
57828;SDS011;43657;52.698;6.314;2023-04-25T01:52:56;37.78;;;16.10;;
57828;SDS011;43657;52.698;6.314;2023-04-25T01:55:21;27.52;;;11.57;;
57828;SDS011;43657;52.698;6.314;2023-04-25T01:57:47;34.38;;;13.82;;
57828;SDS011;43657;52.698;6.314;2023-04-25T02:00:13;29.23;;;13.05;;
57828;SDS011;43657;52.698;6.314;2023-04-25T02:02:38;24.98;;;11.55;;
57828;SDS011;43657;52.698;6.314;2023-04-25T02:05:04;33.72;;;13.65;;
57828;SDS011;43657;52.698;6.314;2023-04-25T02:07:31;24.80;;;11.65;;
57828;SDS011;43657;52.698;6.314;2023-04-25T02:09:57;29.55;;;13.20;;
57828;SDS011;43657;52.698;6.314;2023-04-25T02:12:22;23.92;;;10.43;;
57828;SDS011;43657;52.698;6.314;2023-04-25T02:14:48;28.05;;;11.60;;
57828;SDS011;43657;52.698;6.314;2023-04-25T02:17:13;27.60;;;11.10;;
57828;SDS011;43657;52.698;6.314;2023-04-25T02:19:39;31.40;;;11.75;;
57828;SDS011;43657;52.698;6.314;2023-04-25T02:22:04;29.23;;;13.43;;
57828;SDS011;43657;52.698;6.314;2023-04-25T02:24:30;32.72;;;13.55;;
57828;SDS011;43657;52.698;6.314;2023-04-25T02:26:56;25.83;;;12.18;;
57828;SDS011;43657;52.698;6.314;2023-04-25T02:29:22;30.95;;;12.55;;
57828;SDS011;43657;52.698;6.314;2023-04-25T02:31:48;29.05;;;12.80;;
57828;SDS011;43657;52.698;6.314;2023-04-25T02:34:13;28.80;;;12.18;;
57828;SDS011;43657;52.698;6.314;2023-04-25T02:36:39;30.80;;;14.95;;
57828;SDS011;43657;52.698;6.314;2023-04-25T02:39:05;29.48;;;13.40;;
57828;SDS011;43657;52.698;6.314;2023-04-25T02:41:30;29.77;;;12.60;;
57828;SDS011;43657;52.698;6.314;2023-04-25T02:43:56;25.83;;;10.90;;
57828;SDS011;43657;52.698;6.314;2023-04-25T02:46:21;24.80;;;9.43;;
57828;SDS011;43657;52.698;6.314;2023-04-25T02:48:47;22.33;;;8.80;;
57828;SDS011;43657;52.698;6.314;2023-04-25T02:51:12;26.23;;;8.50;;
57828;SDS011;43657;52.698;6.314;2023-04-25T02:53:38;22.80;;;8.68;;
57828;SDS011;43657;52.698;6.314;2023-04-25T02:56:04;19.75;;;7.32;;
57828;SDS011;43657;52.698;6.314;2023-04-25T02:58:32;19.27;;;7.07;;
57828;SDS011;43657;52.698;6.314;2023-04-25T03:00:58;17.98;;;7.90;;
57828;SDS011;43657;52.698;6.314;2023-04-25T03:03:23;23.70;;;8.52;;
57828;SDS011;43657;52.698;6.314;2023-04-25T03:05:49;20.85;;;7.55;;
57828;SDS011;43657;52.698;6.314;2023-04-25T03:08:16;24.30;;;7.28;;
57828;SDS011;43657;52.698;6.314;2023-04-25T03:10:42;23.25;;;7.45;;
57828;SDS011;43657;52.698;6.314;2023-04-25T03:13:08;20.90;;;7.78;;
57828;SDS011;43657;52.698;6.314;2023-04-25T03:15:34;19.83;;;6.25;;
57828;SDS011;43657;52.698;6.314;2023-04-25T03:18:00;20.50;;;6.70;;
57828;SDS011;43657;52.698;6.314;2023-04-25T03:20:26;24.67;;;7.97;;
57828;SDS011;43657;52.698;6.314;2023-04-25T03:22:51;19.65;;;7.90;;
57828;SDS011;43657;52.698;6.314;2023-04-25T03:25:17;23.58;;;7.22;;
57828;SDS011;43657;52.698;6.314;2023-04-25T03:27:43;21.90;;;7.15;;
57828;SDS011;43657;52.698;6.314;2023-04-25T03:30:08;22.88;;;6.68;;
57828;SDS011;43657;52.698;6.314;2023-04-25T03:32:34;19.85;;;7.03;;
57828;SDS011;43657;52.698;6.314;2023-04-25T03:35:00;21.77;;;6.45;;
57828;SDS011;43657;52.698;6.314;2023-04-25T03:37:25;21.40;;;6.35;;
57828;SDS011;43657;52.698;6.314;2023-04-25T03:39:51;19.20;;;5.60;;
57828;SDS011;43657;52.698;6.314;2023-04-25T03:42:16;20.95;;;5.53;;
57828;SDS011;43657;52.698;6.314;2023-04-25T03:44:42;16.85;;;5.20;;
57828;SDS011;43657;52.698;6.314;2023-04-25T03:47:08;16.42;;;5.22;;
57828;SDS011;43657;52.698;6.314;2023-04-25T03:49:34;19.13;;;5.18;;
57828;SDS011;43657;52.698;6.314;2023-04-25T03:52:00;15.43;;;4.97;;
57828;SDS011;43657;52.698;6.314;2023-04-25T03:54:26;13.80;;;4.70;;
57828;SDS011;43657;52.698;6.314;2023-04-25T03:56:51;17.58;;;4.60;;
57828;SDS011;43657;52.698;6.314;2023-04-25T03:59:17;13.38;;;4.28;;
57828;SDS011;43657;52.698;6.314;2023-04-25T04:01:42;13.25;;;4.28;;
57828;SDS011;43657;52.698;6.314;2023-04-25T04:04:08;14.90;;;4.38;;
57828;SDS011;43657;52.698;6.314;2023-04-25T04:06:33;17.48;;;4.82;;
57828;SDS011;43657;52.698;6.314;2023-04-25T04:08:59;15.80;;;4.07;;
57828;SDS011;43657;52.698;6.314;2023-04-25T04:11:24;15.15;;;4.47;;
57828;SDS011;43657;52.698;6.314;2023-04-25T04:13:50;11.93;;;3.97;;
57828;SDS011;43657;52.698;6.314;2023-04-25T04:16:16;14.40;;;4.45;;
57828;SDS011;43657;52.698;6.314;2023-04-25T04:18:42;14.65;;;4.43;;
57828;SDS011;43657;52.698;6.314;2023-04-25T04:21:07;14.98;;;4.28;;
57828;SDS011;43657;52.698;6.314;2023-04-25T04:23:33;13.70;;;3.85;;
57828;SDS011;43657;52.698;6.314;2023-04-25T04:25:58;11.38;;;4.13;;
57828;SDS011;43657;52.698;6.314;2023-04-25T04:28:24;14.35;;;4.25;;
57828;SDS011;43657;52.698;6.314;2023-04-25T04:30:51;12.32;;;3.72;;
57828;SDS011;43657;52.698;6.314;2023-04-25T04:33:17;13.05;;;4.32;;
57828;SDS011;43657;52.698;6.314;2023-04-25T04:35:46;12.55;;;3.60;;
57828;SDS011;43657;52.698;6.314;2023-04-25T04:38:12;13.45;;;3.90;;
57828;SDS011;43657;52.698;6.314;2023-04-25T04:40:40;13.80;;;3.90;;
57828;SDS011;43657;52.698;6.314;2023-04-25T04:43:07;9.73;;;3.83;;
57828;SDS011;43657;52.698;6.314;2023-04-25T04:45:35;10.30;;;3.78;;
57828;SDS011;43657;52.698;6.314;2023-04-25T04:48:03;10.98;;;3.35;;
57828;SDS011;43657;52.698;6.314;2023-04-25T04:50:30;11.68;;;3.63;;
57828;SDS011;43657;52.698;6.314;2023-04-25T04:52:57;12.75;;;3.42;;
57828;SDS011;43657;52.698;6.314;2023-04-25T04:55:23;10.43;;;3.92;;
57828;SDS011;43657;52.698;6.314;2023-04-25T04:57:48;11.60;;;4.18;;
57828;SDS011;43657;52.698;6.314;2023-04-25T05:00:14;12.13;;;4.07;;
57828;SDS011;43657;52.698;6.314;2023-04-25T05:02:40;13.73;;;4.18;;
57828;SDS011;43657;52.698;6.314;2023-04-25T05:05:06;13.65;;;3.53;;
57828;SDS011;43657;52.698;6.314;2023-04-25T05:07:33;12.25;;;3.88;;
57828;SDS011;43657;52.698;6.314;2023-04-25T05:09:59;9.98;;;4.22;;
57828;SDS011;43657;52.698;6.314;2023-04-25T05:12:24;13.32;;;5.10;;
57828;SDS011;43657;52.698;6.314;2023-04-25T05:14:50;12.55;;;4.50;;
57828;SDS011;43657;52.698;6.314;2023-04-25T05:17:15;15.98;;;5.00;;
57828;SDS011;43657;52.698;6.314;2023-04-25T05:19:41;14.50;;;5.10;;
57828;SDS011;43657;52.698;6.314;2023-04-25T05:22:06;12.77;;;4.70;;
57828;SDS011;43657;52.698;6.314;2023-04-25T05:24:32;13.35;;;4.72;;
57828;SDS011;43657;52.698;6.314;2023-04-25T05:26:57;10.45;;;4.35;;
57828;SDS011;43657;52.698;6.314;2023-04-25T05:29:23;10.80;;;4.93;;
57828;SDS011;43657;52.698;6.314;2023-04-25T05:31:49;9.65;;;4.03;;
57828;SDS011;43657;52.698;6.314;2023-04-25T05:34:14;10.85;;;4.03;;
57828;SDS011;43657;52.698;6.314;2023-04-25T05:36:41;11.07;;;4.43;;
57828;SDS011;43657;52.698;6.314;2023-04-25T05:39:07;12.32;;;4.90;;
57828;SDS011;43657;52.698;6.314;2023-04-25T05:41:33;9.13;;;4.30;;
57828;SDS011;43657;52.698;6.314;2023-04-25T05:43:59;12.93;;;4.68;;
57828;SDS011;43657;52.698;6.314;2023-04-25T05:46:24;12.82;;;4.88;;
57828;SDS011;43657;52.698;6.314;2023-04-25T05:48:50;14.45;;;4.53;;
57828;SDS011;43657;52.698;6.314;2023-04-25T05:51:15;11.98;;;3.65;;
57828;SDS011;43657;52.698;6.314;2023-04-25T05:53:43;13.27;;;3.85;;
57828;SDS011;43657;52.698;6.314;2023-04-25T05:56:09;12.40;;;3.95;;
57828;SDS011;43657;52.698;6.314;2023-04-25T05:58:34;11.82;;;3.65;;
57828;SDS011;43657;52.698;6.314;2023-04-25T06:01:00;11.13;;;3.65;;
57828;SDS011;43657;52.698;6.314;2023-04-25T06:03:26;10.45;;;3.05;;
57828;SDS011;43657;52.698;6.314;2023-04-25T06:05:51;12.75;;;3.47;;
57828;SDS011;43657;52.698;6.314;2023-04-25T06:08:17;11.55;;;3.17;;
57828;SDS011;43657;52.698;6.314;2023-04-25T06:10:42;11.13;;;2.80;;
57828;SDS011;43657;52.698;6.314;2023-04-25T06:13:08;8.35;;;2.70;;
57828;SDS011;43657;52.698;6.314;2023-04-25T06:15:34;12.57;;;3.17;;
57828;SDS011;43657;52.698;6.314;2023-04-25T06:17:59;11.48;;;2.60;;
57828;SDS011;43657;52.698;6.314;2023-04-25T06:20:25;8.20;;;2.70;;
57828;SDS011;43657;52.698;6.314;2023-04-25T06:22:51;8.57;;;3.28;;
57828;SDS011;43657;52.698;6.314;2023-04-25T06:25:17;8.85;;;3.00;;
57828;SDS011;43657;52.698;6.314;2023-04-25T06:27:43;9.23;;;2.35;;
57828;SDS011;43657;52.698;6.314;2023-04-25T06:30:09;10.30;;;2.35;;
57828;SDS011;43657;52.698;6.314;2023-04-25T06:32:36;10.63;;;3.00;;
57828;SDS011;43657;52.698;6.314;2023-04-25T06:35:02;9.98;;;2.40;;
57828;SDS011;43657;52.698;6.314;2023-04-25T06:37:28;6.55;;;2.35;;
57828;SDS011;43657;52.698;6.314;2023-04-25T06:39:55;8.27;;;2.50;;
57828;SDS011;43657;52.698;6.314;2023-04-25T06:42:20;9.38;;;2.58;;
57828;SDS011;43657;52.698;6.314;2023-04-25T06:44:46;9.35;;;2.70;;
57828;SDS011;43657;52.698;6.314;2023-04-25T06:47:11;8.80;;;3.17;;
57828;SDS011;43657;52.698;6.314;2023-04-25T06:49:37;11.30;;;3.00;;
57828;SDS011;43657;52.698;6.314;2023-04-25T06:52:02;10.27;;;2.92;;
57828;SDS011;43657;52.698;6.314;2023-04-25T06:54:28;9.02;;;2.70;;
57828;SDS011;43657;52.698;6.314;2023-04-25T06:56:55;9.27;;;3.30;;
57828;SDS011;43657;52.698;6.314;2023-04-25T06:59:20;12.93;;;2.70;;
57828;SDS011;43657;52.698;6.314;2023-04-25T07:01:46;8.10;;;2.33;;
57828;SDS011;43657;52.698;6.314;2023-04-25T07:04:12;8.75;;;2.67;;
57828;SDS011;43657;52.698;6.314;2023-04-25T07:06:37;12.50;;;3.00;;
57828;SDS011;43657;52.698;6.314;2023-04-25T07:09:07;11.00;;;3.33;;
57828;SDS011;43657;52.698;6.314;2023-04-25T07:11:36;9.00;;;2.70;;
57828;SDS011;43657;52.698;6.314;2023-04-25T07:14:02;9.77;;;2.33;;
57828;SDS011;43657;52.698;6.314;2023-04-25T07:16:28;10.93;;;2.72;;
57828;SDS011;43657;52.698;6.314;2023-04-25T07:18:54;10.20;;;2.47;;
57828;SDS011;43657;52.698;6.314;2023-04-25T07:21:19;10.18;;;2.90;;
57828;SDS011;43657;52.698;6.314;2023-04-25T07:23:45;11.63;;;3.30;;
57828;SDS011;43657;52.698;6.314;2023-04-25T07:26:10;9.85;;;3.22;;
57828;SDS011;43657;52.698;6.314;2023-04-25T07:28:36;9.57;;;2.47;;
57828;SDS011;43657;52.698;6.314;2023-04-25T07:31:01;13.45;;;3.13;;
57828;SDS011;43657;52.698;6.314;2023-04-25T07:33:27;11.07;;;3.13;;
57828;SDS011;43657;52.698;6.314;2023-04-25T07:35:53;11.57;;;3.00;;
57828;SDS011;43657;52.698;6.314;2023-04-25T07:38:20;8.70;;;2.50;;
57828;SDS011;43657;52.698;6.314;2023-04-25T07:40:47;9.35;;;2.85;;
57828;SDS011;43657;52.698;6.314;2023-04-25T07:43:16;8.35;;;2.80;;
57828;SDS011;43657;52.698;6.314;2023-04-25T07:45:42;9.85;;;2.53;;
57828;SDS011;43657;52.698;6.314;2023-04-25T07:48:11;11.77;;;2.92;;
57828;SDS011;43657;52.698;6.314;2023-04-25T07:50:41;9.90;;;3.13;;
57828;SDS011;43657;52.698;6.314;2023-04-25T07:53:06;10.25;;;2.95;;
57828;SDS011;43657;52.698;6.314;2023-04-25T07:55:32;9.18;;;2.50;;
57828;SDS011;43657;52.698;6.314;2023-04-25T07:57:57;11.60;;;2.80;;
57828;SDS011;43657;52.698;6.314;2023-04-25T08:00:23;9.35;;;2.35;;
57828;SDS011;43657;52.698;6.314;2023-04-25T08:02:50;10.43;;;2.63;;
57828;SDS011;43657;52.698;6.314;2023-04-25T08:05:16;12.98;;;2.65;;
57828;SDS011;43657;52.698;6.314;2023-04-25T08:07:42;12.23;;;2.60;;
57828;SDS011;43657;52.698;6.314;2023-04-25T08:10:08;9.82;;;2.35;;
57828;SDS011;43657;52.698;6.314;2023-04-25T08:12:34;9.13;;;2.63;;
57828;SDS011;43657;52.698;6.314;2023-04-25T08:15:00;8.55;;;1.42;;
57828;SDS011;43657;52.698;6.314;2023-04-25T08:17:26;6.32;;;1.60;;
57828;SDS011;43657;52.698;6.314;2023-04-25T08:19:51;4.35;;;1.23;;
57828;SDS011;43657;52.698;6.314;2023-04-25T08:22:17;4.00;;;1.15;;
57828;SDS011;43657;52.698;6.314;2023-04-25T08:24:42;6.68;;;1.38;;
57828;SDS011;43657;52.698;6.314;2023-04-25T08:27:08;4.53;;;1.60;;
57828;SDS011;43657;52.698;6.314;2023-04-25T08:29:34;6.18;;;1.67;;
57828;SDS011;43657;52.698;6.314;2023-04-25T08:31:59;7.43;;;1.63;;
57828;SDS011;43657;52.698;6.314;2023-04-25T08:34:25;6.22;;;1.27;;
57828;SDS011;43657;52.698;6.314;2023-04-25T08:36:51;5.57;;;1.70;;
57828;SDS011;43657;52.698;6.314;2023-04-25T08:39:17;3.83;;;1.20;;
57828;SDS011;43657;52.698;6.314;2023-04-25T08:41:43;4.65;;;1.70;;
57828;SDS011;43657;52.698;6.314;2023-04-25T08:44:10;4.47;;;1.58;;
57828;SDS011;43657;52.698;6.314;2023-04-25T08:46:37;6.43;;;1.60;;
57828;SDS011;43657;52.698;6.314;2023-04-25T08:49:05;6.78;;;1.80;;
57828;SDS011;43657;52.698;6.314;2023-04-25T08:51:32;7.47;;;1.83;;
57828;SDS011;43657;52.698;6.314;2023-04-25T08:54:11;6.97;;;1.90;;
57828;SDS011;43657;52.698;6.314;2023-04-25T08:56:38;4.95;;;1.52;;
57828;SDS011;43657;52.698;6.314;2023-04-25T08:59:08;6.43;;;1.70;;
57828;SDS011;43657;52.698;6.314;2023-04-25T09:01:35;8.50;;;2.50;;
57828;SDS011;43657;52.698;6.314;2023-04-25T09:04:01;11.00;;;2.20;;
57828;SDS011;43657;52.698;6.314;2023-04-25T09:06:27;7.20;;;2.28;;
57828;SDS011;43657;52.698;6.314;2023-04-25T09:08:53;4.68;;;1.70;;
57828;SDS011;43657;52.698;6.314;2023-04-25T09:11:19;8.23;;;2.28;;
57828;SDS011;43657;52.698;6.314;2023-04-25T09:13:45;7.05;;;1.92;;
57828;SDS011;43657;52.698;6.314;2023-04-25T09:16:10;7.15;;;2.00;;
57828;SDS011;43657;52.698;6.314;2023-04-25T09:18:37;5.55;;;1.77;;
57828;SDS011;43657;52.698;6.314;2023-04-25T09:21:09;7.88;;;1.67;;
57828;SDS011;43657;52.698;6.314;2023-04-25T09:23:46;6.82;;;1.90;;
57828;SDS011;43657;52.698;6.314;2023-04-25T09:26:16;7.38;;;2.15;;
57828;SDS011;43657;52.698;6.314;2023-04-25T09:28:43;6.95;;;1.90;;
57828;SDS011;43657;52.698;6.314;2023-04-25T09:31:10;9.57;;;1.90;;
57828;SDS011;43657;52.698;6.314;2023-04-25T09:33:36;7.75;;;1.92;;
57828;SDS011;43657;52.698;6.314;2023-04-25T09:36:04;8.73;;;1.92;;
57828;SDS011;43657;52.698;6.314;2023-04-25T09:38:32;8.60;;;1.63;;
57828;SDS011;43657;52.698;6.314;2023-04-25T09:41:09;7.53;;;1.90;;
57828;SDS011;43657;52.698;6.314;2023-04-25T09:43:35;5.65;;;1.60;;
57828;SDS011;43657;52.698;6.314;2023-04-25T09:46:01;5.90;;;2.00;;
57828;SDS011;43657;52.698;6.314;2023-04-25T09:48:27;6.55;;;1.88;;
57828;SDS011;43657;52.698;6.314;2023-04-25T09:51:03;7.00;;;2.20;;
57828;SDS011;43657;52.698;6.314;2023-04-25T09:53:35;7.22;;;1.70;;
57828;SDS011;43657;52.698;6.314;2023-04-25T09:56:05;7.65;;;1.67;;
57828;SDS011;43657;52.698;6.314;2023-04-25T09:58:33;8.63;;;1.85;;
57828;SDS011;43657;52.698;6.314;2023-04-25T10:01:09;6.20;;;1.63;;
57828;SDS011;43657;52.698;6.314;2023-04-25T10:03:36;7.10;;;1.70;;
57828;SDS011;43657;52.698;6.314;2023-04-25T10:06:08;6.13;;;1.70;;
57828;SDS011;43657;52.698;6.314;2023-04-25T10:08:43;6.18;;;1.63;;
57828;SDS011;43657;52.698;6.314;2023-04-25T10:11:09;5.78;;;1.60;;
57828;SDS011;43657;52.698;6.314;2023-04-25T10:13:36;4.78;;;1.70;;
57828;SDS011;43657;52.698;6.314;2023-04-25T10:16:02;4.30;;;1.30;;
57828;SDS011;43657;52.698;6.314;2023-04-25T10:18:29;4.80;;;1.70;;
57828;SDS011;43657;52.698;6.314;2023-04-25T10:20:56;6.85;;;1.70;;
57828;SDS011;43657;52.698;6.314;2023-04-25T10:23:24;7.03;;;1.77;;
57828;SDS011;43657;52.698;6.314;2023-04-25T10:25:51;6.80;;;1.67;;
57828;SDS011;43657;52.698;6.314;2023-04-25T10:28:18;7.25;;;2.03;;
57828;SDS011;43657;52.698;6.314;2023-04-25T10:31:02;10.30;;;2.33;;
57828;SDS011;43657;52.698;6.314;2023-04-25T10:33:32;9.13;;;2.25;;
57828;SDS011;43657;52.698;6.314;2023-04-25T10:36:08;10.82;;;2.80;;
57828;SDS011;43657;52.698;6.314;2023-04-25T10:38:42;7.07;;;2.07;;
57828;SDS011;43657;52.698;6.314;2023-04-25T10:41:09;8.88;;;2.50;;
57828;SDS011;43657;52.698;6.314;2023-04-25T10:43:40;8.55;;;2.40;;
57828;SDS011;43657;52.698;6.314;2023-04-25T10:49:00;5.55;;;1.80;;
57828;SDS011;43657;52.698;6.314;2023-04-25T10:51:33;7.72;;;2.30;;
57828;SDS011;43657;52.698;6.314;2023-04-25T10:54:04;6.93;;;1.73;;
57828;SDS011;43657;52.698;6.314;2023-04-25T10:56:41;5.78;;;1.83;;
57828;SDS011;43657;52.698;6.314;2023-04-25T10:59:18;7.07;;;1.80;;
57828;SDS011;43657;52.698;6.314;2023-04-25T11:01:51;8.27;;;2.05;;
57828;SDS011;43657;52.698;6.314;2023-04-25T11:04:29;6.80;;;2.00;;
57828;SDS011;43657;52.698;6.314;2023-04-25T11:09:47;8.85;;;2.30;;
57828;SDS011;43657;52.698;6.314;2023-04-25T11:12:14;7.53;;;1.98;;
57828;SDS011;43657;52.698;6.314;2023-04-25T11:14:41;8.07;;;2.40;;
57828;SDS011;43657;52.698;6.314;2023-04-25T11:17:17;8.13;;;2.10;;
57828;SDS011;43657;52.698;6.314;2023-04-25T11:19:43;8.88;;;2.17;;
57828;SDS011;43657;52.698;6.314;2023-04-25T11:22:09;6.40;;;1.95;;
57828;SDS011;43657;52.698;6.314;2023-04-25T11:24:35;6.43;;;1.92;;
57828;SDS011;43657;52.698;6.314;2023-04-25T11:27:04;5.70;;;1.75;;
57828;SDS011;43657;52.698;6.314;2023-04-25T11:29:33;5.97;;;1.75;;
57828;SDS011;43657;52.698;6.314;2023-04-25T11:32:00;5.70;;;1.70;;
57828;SDS011;43657;52.698;6.314;2023-04-25T11:34:26;8.27;;;2.17;;
57828;SDS011;43657;52.698;6.314;2023-04-25T11:36:55;7.10;;;2.00;;
57828;SDS011;43657;52.698;6.314;2023-04-25T11:39:21;5.72;;;1.70;;
57828;SDS011;43657;52.698;6.314;2023-04-25T11:41:48;6.57;;;1.60;;
57828;SDS011;43657;52.698;6.314;2023-04-25T11:44:18;4.65;;;1.25;;
57828;SDS011;43657;52.698;6.314;2023-04-25T11:46:45;5.45;;;1.60;;
57828;SDS011;43657;52.698;6.314;2023-04-25T11:49:11;4.10;;;1.52;;
57828;SDS011;43657;52.698;6.314;2023-04-25T11:51:47;7.65;;;1.85;;
57828;SDS011;43657;52.698;6.314;2023-04-25T11:54:13;6.57;;;1.60;;
57828;SDS011;43657;52.698;6.314;2023-04-25T11:56:43;4.63;;;1.60;;
57828;SDS011;43657;52.698;6.314;2023-04-25T11:59:09;5.40;;;1.25;;
57828;SDS011;43657;52.698;6.314;2023-04-25T12:01:36;7.47;;;1.10;;
57828;SDS011;43657;52.698;6.314;2023-04-25T12:04:15;6.60;;;1.73;;
57828;SDS011;43657;52.698;6.314;2023-04-25T12:06:49;4.97;;;1.50;;
57828;SDS011;43657;52.698;6.314;2023-04-25T12:09:17;6.13;;;1.88;;
57828;SDS011;43657;52.698;6.314;2023-04-25T12:11:53;9.38;;;1.92;;
57828;SDS011;43657;52.698;6.314;2023-04-25T12:14:21;7.07;;;1.67;;
57828;SDS011;43657;52.698;6.314;2023-04-25T12:16:49;8.57;;;2.05;;
57828;SDS011;43657;52.698;6.314;2023-04-25T12:19:16;6.30;;;2.80;;
57828;SDS011;43657;52.698;6.314;2023-04-25T12:21:43;7.13;;;2.00;;
57828;SDS011;43657;52.698;6.314;2023-04-25T12:24:10;7.35;;;2.08;;
57828;SDS011;43657;52.698;6.314;2023-04-25T12:26:51;8.30;;;2.30;;
57828;SDS011;43657;52.698;6.314;2023-04-25T12:29:31;6.93;;;2.13;;
57828;SDS011;43657;52.698;6.314;2023-04-25T12:31:58;7.15;;;2.00;;
57828;SDS011;43657;52.698;6.314;2023-04-25T12:34:26;8.10;;;1.85;;
57828;SDS011;43657;52.698;6.314;2023-04-25T12:36:52;8.35;;;2.10;;
57828;SDS011;43657;52.698;6.314;2023-04-25T12:39:22;8.32;;;2.13;;
57828;SDS011;43657;52.698;6.314;2023-04-25T12:41:49;6.35;;;1.60;;
57828;SDS011;43657;52.698;6.314;2023-04-25T12:44:15;6.82;;;1.95;;
57828;SDS011;43657;52.698;6.314;2023-04-25T12:46:43;6.22;;;1.55;;
57828;SDS011;43657;52.698;6.314;2023-04-25T12:49:13;5.25;;;1.90;;
57828;SDS011;43657;52.698;6.314;2023-04-25T12:51:39;4.28;;;1.33;;
57828;SDS011;43657;52.698;6.314;2023-04-25T12:54:06;5.72;;;1.77;;
57828;SDS011;43657;52.698;6.314;2023-04-25T12:56:33;7.80;;;2.08;;
57828;SDS011;43657;52.698;6.314;2023-04-25T12:59:00;6.43;;;1.90;;
57828;SDS011;43657;52.698;6.314;2023-04-25T13:01:25;6.97;;;1.85;;
57828;SDS011;43657;52.698;6.314;2023-04-25T13:03:51;7.35;;;2.10;;
57828;SDS011;43657;52.698;6.314;2023-04-25T13:06:18;8.30;;;2.00;;
57828;SDS011;43657;52.698;6.314;2023-04-25T13:08:44;6.35;;;1.80;;
57828;SDS011;43657;52.698;6.314;2023-04-25T13:11:10;5.68;;;1.77;;
57828;SDS011;43657;52.698;6.314;2023-04-25T13:13:36;6.75;;;1.60;;
57828;SDS011;43657;52.698;6.314;2023-04-25T13:16:05;7.47;;;2.03;;
57828;SDS011;43657;52.698;6.314;2023-04-25T13:18:32;5.13;;;1.70;;
57828;SDS011;43657;52.698;6.314;2023-04-25T13:20:58;5.25;;;1.40;;
57828;SDS011;43657;52.698;6.314;2023-04-25T13:23:25;4.90;;;1.40;;
57828;SDS011;43657;52.698;6.314;2023-04-25T13:25:54;4.72;;;1.10;;
57828;SDS011;43657;52.698;6.314;2023-04-25T13:28:22;3.47;;;1.00;;
57828;SDS011;43657;52.698;6.314;2023-04-25T13:30:48;4.18;;;1.23;;
57828;SDS011;43657;52.698;6.314;2023-04-25T13:33:14;4.22;;;1.48;;
57828;SDS011;43657;52.698;6.314;2023-04-25T13:35:43;7.70;;;1.75;;
57828;SDS011;43657;52.698;6.314;2023-04-25T13:38:11;6.93;;;1.80;;
57828;SDS011;43657;52.698;6.314;2023-04-25T13:40:37;5.32;;;1.52;;
57828;SDS011;43657;52.698;6.314;2023-04-25T13:43:04;5.40;;;1.63;;
57828;SDS011;43657;52.698;6.314;2023-04-25T13:45:31;8.50;;;1.88;;
57828;SDS011;43657;52.698;6.314;2023-04-25T13:48:00;7.88;;;1.73;;
57828;SDS011;43657;52.698;6.314;2023-04-25T13:50:25;4.90;;;1.60;;
57828;SDS011;43657;52.698;6.314;2023-04-25T13:52:51;5.65;;;1.55;;
57828;SDS011;43657;52.698;6.314;2023-04-25T13:55:16;6.28;;;1.70;;
57828;SDS011;43657;52.698;6.314;2023-04-25T13:57:42;6.18;;;1.70;;
57828;SDS011;43657;52.698;6.314;2023-04-25T14:00:09;4.40;;;1.30;;
57828;SDS011;43657;52.698;6.314;2023-04-25T14:02:36;4.88;;;1.70;;
57828;SDS011;43657;52.698;6.314;2023-04-25T14:05:02;7.07;;;1.70;;
57828;SDS011;43657;52.698;6.314;2023-04-25T14:07:28;4.13;;;1.50;;
57828;SDS011;43657;52.698;6.314;2023-04-25T14:09:55;5.60;;;1.80;;
57828;SDS011;43657;52.698;6.314;2023-04-25T14:12:22;4.03;;;1.58;;
57828;SDS011;43657;52.698;6.314;2023-04-25T14:14:51;5.85;;;1.75;;
57828;SDS011;43657;52.698;6.314;2023-04-25T14:17:19;5.78;;;1.70;;
57828;SDS011;43657;52.698;6.314;2023-04-25T14:19:44;4.07;;;1.40;;
57828;SDS011;43657;52.698;6.314;2023-04-25T14:22:10;5.32;;;1.63;;
57828;SDS011;43657;52.698;6.314;2023-04-25T14:24:36;5.90;;;1.58;;
57828;SDS011;43657;52.698;6.314;2023-04-25T14:27:02;4.60;;;1.35;;
57828;SDS011;43657;52.698;6.314;2023-04-25T14:29:31;4.57;;;1.50;;
57828;SDS011;43657;52.698;6.314;2023-04-25T14:31:56;5.40;;;1.40;;
57828;SDS011;43657;52.698;6.314;2023-04-25T14:34:23;4.50;;;1.50;;
57828;SDS011;43657;52.698;6.314;2023-04-25T14:36:50;5.95;;;1.63;;
57828;SDS011;43657;52.698;6.314;2023-04-25T14:39:16;3.95;;;1.75;;
57828;SDS011;43657;52.698;6.314;2023-04-25T14:41:42;5.75;;;1.67;;